KTEX/TEX METAR and TAF weather

Enter ICAO airport designator
Station Type Date Time Source
KTEX METAR 2021/02/25 16:15 UTC NOAA

KTEX 251615Z AUTO 00000KT 10SM SCT011 SCT050 BKN060 M07/M11 A3014 RMK AO2


Station Type Date Time Source
KTEX Decoded METAR 2021/02/25 16:15 UTC NOAA

Telluride, Telluride Regional Airport, CO, United States (KTEX) 37-57-14N 107-54-31W
Feb 25, 2021 - 11:15 AM EST / 2021.02.25 1615 UTC
Wind: Calm:0
Visibility: 10 mile(s):0
Sky conditions: mostly cloudy
Temperature: 19 F (-7 C)
Dew Point: 12 F (-11 C)
Relative Humidity: 73%
Pressure (altimeter): 30.14 in. Hg (1020 hPa)
ob: KTEX 251615Z AUTO 00000KT 10SM SCT011 SCT050 BKN060 M07/M11 A3014 RMK AO2
cycle: 16

Station Type Date Time Source
KTEX TAF 2021/02/25 12:30 UTC NOAA

TAF KTEX 251128Z 2512/2612 VRB03KT P6SM BKN100
FM251300 22005KT P6SM VCSH SCT035 BKN070
FM252100 26010KT P6SM VCSH SCT050 BKN080
FM260200 19006KT P6SM FEW090 SCT200

Example: see airport list